Terminal Aerodrome Forecast
Issued by NWS

Current Version | Previous Version | Text Only | Print | Product List | Glossary On
Versions: 1 2 3 4 5 6 7 8 9 10 11 12 13 14 15 16 17 18 19 20 21 22 23 24 25 26 27 28 29 30
000
FTUS41 KBUF 221400 AAB
TAFIAG
TAF AMD
KIAG 221432Z 2215/2312 32014G19KT P6SM FEW030 OVC035
     FM222000 29014G20KT P6SM BKN035
     FM222300 27010KT P6SM BKN035
     FM230400 25007KT P6SM SCT035
     FM230700 24006KT P6SM BKN080=

USA.gov is the U.S. government's official web portal to all federal, state and local government web resources and services.